Phoenix, Arizona
Traffic Map
Current Weather Conditions
Phoenix, Arizona
Broken Clouds
Broken Clouds
82°
Feels Like: 82°
Wind Chill: 82° Ceiling: 12000
Heat Index: 82° Visibility: 10mi
Dew Point: 52° Wind: 17mph
Humidity: 35% Direction: 150° (SSE)
Pressure: 29.96in Gusts: 29mph
Raw Report DataKPHX 262351Z 15015G25KT 10SM SCT090 BKN120 BKN150 BKN230 28/11 A2996 RMK AO2 PK WND 15028/2325 SLP126 T02780111 10317 20278 57013
Traffic Incident Summary
Active as of:
Severity:
Category:
InformationThere was an issue retrieving the traffic information for this location. Please try a different location or try again shortly.
Advertisements
Track Severe Weather on mobile